Main page
METAR-TAF:

METAR-TAF

Airports :

Xi'an Xianyang International Airport

Xi'an, China

latitude: 34-26N, longitude: 108-45E, elevation: 479 m

Current weather observation

The report was made 29 minutes ago, at 01:00 UTC
Wind 21 kt from the East/Northeast
Temperature 21°C
Humidity 53%
Pressure 1009 hPa
Visibility: 6000 m

METAR: ZLXY 190100Z 06011MPS 6000 NSC 21/11 Q1009 NOSIG

Time: 09:29 (01:29 UTC)

Forecast

The report was made 6 hours and 19 minutes ago, at 19:10 UTC
Forecast valid from 19 at 00 UTC to 19 at 24 UTC
Wind 14 kt from the East with gusts up to 23 kt
Visibility: 3000 m
haze
Becoming
from 19 at 20 UTC to 19 at 21 UTC
Wind 6 kt from the North/Northeast

TAF: ZLXY 181910Z 1900/1924 08007G12MPS 3000 HZ NSC TX26/1907Z TN12/1922Z BECMG 1920/1921 02003MPS

Weather observations and forecasts of more than 4000 airports (METAR and TAF reports).

The available stations are represented by yellow and red dots on the map.

Hover mouse over dot to see the name of the station.

Then click to see weather observations and forecasts.

To change the map : click on the green buttons with a black cross to zoom in, on the green button with a dash to zoom out, or on the green arrows for adjacent maps.


METAR-TAF: